CSN6092 VLVT-ZGGG
Flight info
| Callsign | CSN6092 |
|---|---|
| Flight time | 1h 48m |
| Altitude | 37000 |
| Route | NET1D NOHET R474 LAVOS/K0856F370 R474 MC B465 NOB R474 TEBAK/K0856S1130 R474 GYA GYA9 |
| Aircraft | B738/M-SDE2E3FGHIRWXY/LB1 |
Departure
| Time | 2026-05-01 11:56 |
|---|---|
| Airport | Wattay International Airport (VLVT) |
Arrival
| Time | 2026-05-01 13:44 |
|---|---|
| Airport | Guangzhou Baiyun International Airport (ZGGG) |
| Time | Latitude | Longitude | Altitude | Speed | Heading |
|---|---|---|---|---|---|
| 2026-05-01 11:41 | 17.97632 | 102.56881 | 562 ft | 0 kts | 226° |
| 2026-05-01 11:49 | 17.97638 | 102.56887 | 570 ft | 3 kts | 224° |
| 2026-05-01 11:49 | 17.97653 | 102.56902 | 568 ft | 3 kts | 218° |
| 2026-05-01 11:49 | 17.97669 | 102.56913 | 567 ft | 3 kts | 206° |
| 2026-05-01 11:49 | 17.97688 | 102.56921 | 571 ft | 3 kts | 184° |
| 2026-05-01 11:50 | 17.97704 | 102.56918 | 568 ft | 2 kts | 142° |
| 2026-05-01 11:50 | 17.97707 | 102.56915 | 567 ft | 1 kts | 135° |
| 2026-05-01 11:53 | 17.97697 | 102.56926 | 569 ft | 9 kts | 134° |
| 2026-05-01 11:54 | 17.97629 | 102.56998 | 562 ft | 15 kts | 135° |
| 2026-05-01 11:54 | 17.97557 | 102.57076 | 562 ft | 15 kts | 135° |
| 2026-05-01 11:54 | 17.97487 | 102.57150 | 570 ft | 14 kts | 131° |
| 2026-05-01 11:54 | 17.97497 | 102.57236 | 562 ft | 13 kts | 36° |
| 2026-05-01 11:55 | 17.97581 | 102.57264 | 564 ft | 13 kts | 7° |
| 2026-05-01 11:55 | 17.97679 | 102.57278 | 571 ft | 19 kts | 5° |
| 2026-05-01 11:55 | 17.97824 | 102.57284 | 568 ft | 22 kts | 0° |
| 2026-05-01 11:55 | 17.98006 | 102.57182 | 561 ft | 52 kts | 316° |
| 2026-05-01 11:56 | 17.98449 | 102.56733 | 563 ft | 123 kts | 315° |
| 2026-05-01 11:56 | 17.99206 | 102.55971 | 603 ft | 177 kts | 319° |
| 2026-05-01 11:56 | 18.00130 | 102.55065 | 1267 ft | 178 kts | 319° |
| 2026-05-01 11:56 | 18.01016 | 102.54168 | 2068 ft | 180 kts | 313° |
| 2026-05-01 11:57 | 18.01940 | 102.53170 | 2612 ft | 203 kts | 313° |
| 2026-05-01 11:57 | 18.02993 | 102.52047 | 2877 ft | 233 kts | 314° |
| 2026-05-01 11:57 | 18.04308 | 102.50893 | 3062 ft | 263 kts | 335° |
| 2026-05-01 11:57 | 18.06151 | 102.50656 | 3613 ft | 275 kts | 13° |
| 2026-05-01 11:58 | 18.07857 | 102.51550 | 4449 ft | 278 kts | 42° |
| 2026-05-01 11:58 | 18.09154 | 102.53072 | 5263 ft | 283 kts | 53° |
| 2026-05-01 11:58 | 18.11444 | 102.56551 | 6768 ft | 296 kts | 55° |
| 2026-05-01 11:59 | 18.12620 | 102.58349 | 7580 ft | 300 kts | 54° |
| 2026-05-01 11:59 | 18.13828 | 102.60156 | 8336 ft | 304 kts | 54° |
| 2026-05-01 11:59 | 18.15070 | 102.61981 | 9119 ft | 309 kts | 54° |
| 2026-05-01 12:00 | 18.17640 | 102.65724 | 10296 ft | 331 kts | 54° |
| 2026-05-01 12:00 | 18.19176 | 102.67650 | 10461 ft | 355 kts | 42° |
| 2026-05-01 12:00 | 18.23324 | 102.70913 | 11130 ft | 383 kts | 33° |
| 2026-05-01 12:01 | 18.25527 | 102.72521 | 11768 ft | 387 kts | 33° |
| 2026-05-01 12:01 | 18.27751 | 102.74145 | 12451 ft | 389 kts | 33° |
| 2026-05-01 12:01 | 18.29984 | 102.75786 | 13083 ft | 393 kts | 34° |
| 2026-05-01 12:01 | 18.32232 | 102.77451 | 13697 ft | 398 kts | 34° |
| 2026-05-01 12:02 | 18.34504 | 102.79145 | 14223 ft | 402 kts | 34° |
| 2026-05-01 12:02 | 18.36787 | 102.80854 | 14781 ft | 405 kts | 34° |
| 2026-05-01 12:02 | 18.39061 | 102.82560 | 15328 ft | 408 kts | 34° |
| 2026-05-01 12:02 | 18.41379 | 102.84302 | 15856 ft | 412 kts | 34° |
| 2026-05-01 12:03 | 18.43720 | 102.86063 | 16388 ft | 415 kts | 34° |
| 2026-05-01 12:03 | 18.46080 | 102.87840 | 16933 ft | 418 kts | 34° |
| 2026-05-01 12:03 | 18.48458 | 102.89631 | 17411 ft | 422 kts | 34° |
| 2026-05-01 12:03 | 18.50866 | 102.91444 | 17882 ft | 426 kts | 34° |
| 2026-05-01 12:04 | 18.53285 | 102.93267 | 18353 ft | 429 kts | 34° |
| 2026-05-01 12:04 | 18.55719 | 102.95101 | 18803 ft | 431 kts | 34° |
| 2026-05-01 12:04 | 18.58173 | 102.96952 | 19238 ft | 434 kts | 34° |
| 2026-05-01 12:04 | 18.60630 | 102.98805 | 19675 ft | 436 kts | 34° |
| 2026-05-01 12:05 | 18.63077 | 103.00652 | 20036 ft | 440 kts | 34° |
| 2026-05-01 12:05 | 18.68083 | 103.04431 | 20860 ft | 444 kts | 34° |
| 2026-05-01 12:05 | 18.70603 | 103.06334 | 21239 ft | 447 kts | 34° |
| 2026-05-01 12:06 | 18.73145 | 103.08254 | 21612 ft | 450 kts | 34° |
| 2026-05-01 12:06 | 18.75697 | 103.10183 | 21989 ft | 453 kts | 34° |
| 2026-05-01 12:06 | 18.78264 | 103.12123 | 22375 ft | 455 kts | 34° |
| 2026-05-01 12:06 | 18.80843 | 103.14074 | 22748 ft | 458 kts | 34° |
| 2026-05-01 12:07 | 18.83438 | 103.16038 | 23096 ft | 460 kts | 34° |
| 2026-05-01 12:07 | 18.86017 | 103.17990 | 23423 ft | 463 kts | 34° |
| 2026-05-01 12:07 | 18.88645 | 103.19980 | 23707 ft | 465 kts | 34° |
| 2026-05-01 12:07 | 18.91285 | 103.21980 | 23997 ft | 467 kts | 33° |
| 2026-05-01 12:08 | 18.93927 | 103.23983 | 24298 ft | 468 kts | 33° |
| 2026-05-01 12:08 | 18.96590 | 103.26002 | 24591 ft | 470 kts | 33° |
| 2026-05-01 12:08 | 18.99222 | 103.27998 | 24871 ft | 472 kts | 33° |
| 2026-05-01 12:08 | 19.01930 | 103.30053 | 25131 ft | 474 kts | 33° |
| 2026-05-01 12:09 | 19.04616 | 103.32092 | 25413 ft | 476 kts | 33° |
| 2026-05-01 12:09 | 19.07287 | 103.34121 | 25687 ft | 478 kts | 33° |
| 2026-05-01 12:09 | 19.09992 | 103.36175 | 25933 ft | 480 kts | 33° |
| 2026-05-01 12:09 | 19.12715 | 103.38245 | 26192 ft | 482 kts | 33° |
| 2026-05-01 12:10 | 19.15442 | 103.40319 | 26473 ft | 483 kts | 33° |
| 2026-05-01 12:10 | 19.20897 | 103.44470 | 26980 ft | 487 kts | 33° |
| 2026-05-01 12:10 | 19.23650 | 103.46567 | 27229 ft | 488 kts | 33° |
| 2026-05-01 12:11 | 19.28249 | 103.50070 | 27626 ft | 491 kts | 32° |
| 2026-05-01 12:11 | 19.31966 | 103.52904 | 27926 ft | 493 kts | 32° |
| 2026-05-01 12:11 | 19.33848 | 103.54340 | 28077 ft | 494 kts | 32° |
| 2026-05-01 12:12 | 19.36643 | 103.56473 | 28296 ft | 496 kts | 32° |
| 2026-05-01 12:12 | 19.39403 | 103.58580 | 28535 ft | 497 kts | 32° |
| 2026-05-01 12:12 | 19.42209 | 103.60725 | 28741 ft | 497 kts | 32° |
| 2026-05-01 12:12 | 19.45018 | 103.62877 | 28883 ft | 500 kts | 32° |
| 2026-05-01 12:13 | 19.47840 | 103.65054 | 29062 ft | 503 kts | 33° |
| 2026-05-01 12:13 | 19.50666 | 103.67244 | 29254 ft | 504 kts | 33° |
| 2026-05-01 12:13 | 19.53497 | 103.69441 | 29490 ft | 505 kts | 33° |
| 2026-05-01 12:13 | 19.56338 | 103.71647 | 29724 ft | 505 kts | 33° |
| 2026-05-01 12:14 | 19.59181 | 103.73855 | 29990 ft | 505 kts | 32° |
| 2026-05-01 12:14 | 19.62017 | 103.76058 | 30237 ft | 504 kts | 32° |
| 2026-05-01 12:14 | 19.64851 | 103.78258 | 30453 ft | 504 kts | 32° |
| 2026-05-01 12:14 | 19.67658 | 103.80437 | 30682 ft | 504 kts | 33° |
| 2026-05-01 12:15 | 19.70486 | 103.82635 | 30932 ft | 503 kts | 32° |
| 2026-05-01 12:15 | 19.73319 | 103.84835 | 31090 ft | 505 kts | 32° |
| 2026-05-01 12:15 | 19.76157 | 103.87039 | 31242 ft | 506 kts | 32° |
| 2026-05-01 12:15 | 19.79009 | 103.89257 | 31495 ft | 506 kts | 32° |
| 2026-05-01 12:16 | 19.81847 | 103.91470 | 31798 ft | 506 kts | 32° |
| 2026-05-01 12:16 | 19.84683 | 103.93679 | 32045 ft | 506 kts | 32° |
| 2026-05-01 12:16 | 19.87530 | 103.95895 | 32296 ft | 506 kts | 32° |
| 2026-05-01 12:16 | 19.90370 | 103.98108 | 32545 ft | 506 kts | 33° |
| 2026-05-01 12:17 | 19.93210 | 104.00321 | 32730 ft | 507 kts | 32° |
| 2026-05-01 12:17 | 19.96051 | 104.02537 | 33031 ft | 505 kts | 32° |
| 2026-05-01 12:17 | 19.98885 | 104.04747 | 33275 ft | 506 kts | 32° |
| 2026-05-01 12:17 | 20.01725 | 104.06964 | 33431 ft | 508 kts | 32° |
| 2026-05-01 12:18 | 20.04578 | 104.09192 | 33648 ft | 508 kts | 32° |
| 2026-05-01 12:18 | 20.07384 | 104.11385 | 33935 ft | 507 kts | 32° |
| 2026-05-01 12:18 | 20.10230 | 104.13611 | 34174 ft | 506 kts | 32° |
| 2026-05-01 12:18 | 20.13069 | 104.15831 | 34392 ft | 507 kts | 32° |
| 2026-05-01 12:19 | 20.15903 | 104.18049 | 34644 ft | 506 kts | 32° |
| 2026-05-01 12:19 | 20.18736 | 104.20267 | 34901 ft | 505 kts | 32° |
| 2026-05-01 12:19 | 20.21565 | 104.22483 | 35136 ft | 504 kts | 32° |
| 2026-05-01 12:19 | 20.24389 | 104.24695 | 35377 ft | 503 kts | 33° |
| 2026-05-01 12:20 | 20.27200 | 104.26899 | 35622 ft | 502 kts | 32° |
| 2026-05-01 12:20 | 20.30015 | 104.29107 | 35855 ft | 502 kts | 32° |
| 2026-05-01 12:20 | 20.32822 | 104.31310 | 36086 ft | 501 kts | 32° |
| 2026-05-01 12:20 | 20.35627 | 104.33512 | 36343 ft | 500 kts | 32° |
| 2026-05-01 12:21 | 20.38420 | 104.35706 | 36556 ft | 499 kts | 32° |
| 2026-05-01 12:21 | 20.41228 | 104.37912 | 36762 ft | 499 kts | 32° |
| 2026-05-01 12:21 | 20.44018 | 104.40104 | 36900 ft | 498 kts | 32° |
| 2026-05-01 12:21 | 20.46832 | 104.42288 | 36891 ft | 499 kts | 32° |
| 2026-05-01 12:22 | 20.52471 | 104.46613 | 36894 ft | 498 kts | 32° |
| 2026-05-01 12:22 | 20.58049 | 104.50891 | 36893 ft | 497 kts | 32° |
| 2026-05-01 12:23 | 20.63672 | 104.55219 | 36908 ft | 497 kts | 32° |
| 2026-05-01 12:23 | 20.69284 | 104.59552 | 36902 ft | 497 kts | 32° |
| 2026-05-01 12:24 | 20.74861 | 104.63862 | 36893 ft | 493 kts | 32° |
| 2026-05-01 12:24 | 20.80305 | 104.68333 | 36885 ft | 496 kts | 40° |
| 2026-05-01 12:25 | 20.86959 | 104.76842 | 36888 ft | 498 kts | 50° |
| 2026-05-01 12:26 | 20.91136 | 104.82770 | 36890 ft | 500 kts | 50° |
| 2026-05-01 12:26 | 20.97479 | 104.91656 | 36873 ft | 505 kts | 50° |
| 2026-05-01 12:27 | 21.03944 | 105.00628 | 36875 ft | 509 kts | 50° |
| 2026-05-01 12:28 | 21.10386 | 105.09582 | 36869 ft | 501 kts | 50° |
| 2026-05-01 12:29 | 21.16737 | 105.18427 | 36867 ft | 498 kts | 50° |
| 2026-05-01 12:29 | 21.23056 | 105.27240 | 36859 ft | 496 kts | 50° |
| 2026-05-01 12:30 | 21.29359 | 105.36046 | 36879 ft | 497 kts | 50° |
| 2026-05-01 12:31 | 21.33568 | 105.41933 | 36868 ft | 499 kts | 50° |
| 2026-05-01 12:31 | 21.37773 | 105.47821 | 36878 ft | 500 kts | 50° |
| 2026-05-01 12:32 | 21.42012 | 105.53764 | 36882 ft | 502 kts | 50° |
| 2026-05-01 12:32 | 21.48397 | 105.62729 | 36891 ft | 505 kts | 50° |
| 2026-05-01 12:33 | 21.52667 | 105.68731 | 36898 ft | 505 kts | 50° |
| 2026-05-01 12:33 | 21.56935 | 105.74738 | 36895 ft | 505 kts | 50° |
| 2026-05-01 12:34 | 21.61200 | 105.80747 | 36888 ft | 505 kts | 50° |
| 2026-05-01 12:34 | 21.65456 | 105.86750 | 36895 ft | 504 kts | 50° |
| 2026-05-01 12:35 | 21.69677 | 105.92709 | 36891 ft | 503 kts | 50° |
| 2026-05-01 12:35 | 21.73913 | 105.98697 | 36887 ft | 502 kts | 50° |
| 2026-05-01 12:36 | 21.78146 | 106.04687 | 36893 ft | 501 kts | 50° |
| 2026-05-01 12:36 | 21.82363 | 106.10660 | 36908 ft | 501 kts | 50° |
| 2026-05-01 12:37 | 21.86575 | 106.16633 | 36897 ft | 500 kts | 50° |
| 2026-05-01 12:37 | 21.90755 | 106.22566 | 36898 ft | 500 kts | 50° |
| 2026-05-01 12:38 | 21.94961 | 106.28545 | 36903 ft | 501 kts | 50° |
| 2026-05-01 12:38 | 21.99178 | 106.34545 | 36912 ft | 501 kts | 50° |
| 2026-05-01 12:39 | 22.03387 | 106.40542 | 36896 ft | 501 kts | 50° |
| 2026-05-01 12:39 | 22.07574 | 106.46512 | 36925 ft | 503 kts | 50° |
| 2026-05-01 12:40 | 22.11792 | 106.52533 | 36925 ft | 504 kts | 50° |
| 2026-05-01 12:40 | 22.16030 | 106.58589 | 36897 ft | 506 kts | 50° |
| 2026-05-01 12:41 | 22.20274 | 106.64663 | 36907 ft | 507 kts | 50° |
| 2026-05-01 12:41 | 22.24529 | 106.70760 | 36904 ft | 508 kts | 50° |
| 2026-05-01 12:42 | 22.28784 | 106.76864 | 36895 ft | 509 kts | 50° |
| 2026-05-01 12:42 | 22.33025 | 106.82986 | 36897 ft | 510 kts | 53° |
| 2026-05-01 12:43 | 22.36189 | 106.89813 | 36903 ft | 514 kts | 71° |
| 2026-05-01 12:43 | 22.37738 | 106.97355 | 36901 ft | 515 kts | 80° |
| 2026-05-01 12:44 | 22.38982 | 107.04985 | 36887 ft | 515 kts | 80° |
| 2026-05-01 12:45 | 22.41661 | 107.20210 | 36897 ft | 515 kts | 79° |
| 2026-05-01 12:45 | 22.43016 | 107.27824 | 36890 ft | 515 kts | 79° |
| 2026-05-01 12:46 | 22.44383 | 107.35380 | 36897 ft | 515 kts | 79° |
| 2026-05-01 12:46 | 22.45767 | 107.42994 | 36893 ft | 516 kts | 79° |
| 2026-05-01 12:47 | 22.47144 | 107.50608 | 36897 ft | 516 kts | 79° |
| 2026-05-01 12:47 | 22.48514 | 107.58225 | 36896 ft | 516 kts | 79° |
| 2026-05-01 12:48 | 22.49880 | 107.65845 | 36899 ft | 516 kts | 79° |
| 2026-05-01 12:48 | 22.51243 | 107.73472 | 36908 ft | 516 kts | 79° |
| 2026-05-01 12:49 | 22.52602 | 107.81090 | 36905 ft | 516 kts | 79° |
| 2026-05-01 12:49 | 22.53949 | 107.88669 | 36908 ft | 516 kts | 79° |
| 2026-05-01 12:50 | 22.55300 | 107.96288 | 36911 ft | 515 kts | 79° |
| 2026-05-01 12:50 | 22.56647 | 108.03908 | 36903 ft | 515 kts | 79° |
| 2026-05-01 12:51 | 22.57989 | 108.11520 | 36911 ft | 514 kts | 79° |
| 2026-05-01 12:52 | 22.59638 | 108.22925 | 36916 ft | 512 kts | 84° |
| 2026-05-01 12:52 | 22.60844 | 108.34390 | 36905 ft | 510 kts | 84° |
| 2026-05-01 12:53 | 22.62113 | 108.45807 | 36916 ft | 509 kts | 83° |
| 2026-05-01 12:54 | 22.62978 | 108.53423 | 36925 ft | 511 kts | 83° |
| 2026-05-01 12:54 | 22.64267 | 108.64854 | 36918 ft | 508 kts | 84° |
| 2026-05-01 12:55 | 22.65539 | 108.76239 | 36924 ft | 506 kts | 84° |
| 2026-05-01 12:56 | 22.66372 | 108.83741 | 36925 ft | 505 kts | 84° |
| 2026-05-01 12:56 | 22.67207 | 108.91290 | 36916 ft | 504 kts | 84° |
| 2026-05-01 12:57 | 22.68037 | 108.98826 | 36926 ft | 504 kts | 84° |
| 2026-05-01 12:57 | 22.69139 | 109.08888 | 36929 ft | 505 kts | 84° |
| 2026-05-01 12:58 | 22.69969 | 109.16458 | 36928 ft | 506 kts | 83° |
| 2026-05-01 12:59 | 22.71223 | 109.27788 | 36927 ft | 508 kts | 83° |
| 2026-05-01 12:59 | 22.72553 | 109.39194 | 36927 ft | 509 kts | 83° |
| 2026-05-01 13:00 | 22.73882 | 109.50630 | 36938 ft | 510 kts | 83° |
| 2026-05-01 13:01 | 22.75184 | 109.62097 | 36934 ft | 511 kts | 83° |
| 2026-05-01 13:02 | 22.76485 | 109.73583 | 36941 ft | 512 kts | 83° |
| 2026-05-01 13:07 | 22.85236 | 110.52846 | 36955 ft | 499 kts | 84° |
| 2026-05-01 13:07 | 22.85641 | 110.56584 | 36953 ft | 499 kts | 83° |
| 2026-05-01 13:08 | 22.86512 | 110.64044 | 36954 ft | 499 kts | 83° |
| 2026-05-01 13:08 | 22.87402 | 110.71508 | 36946 ft | 499 kts | 83° |
| 2026-05-01 13:09 | 22.88274 | 110.78939 | 36957 ft | 499 kts | 83° |
| 2026-05-01 13:09 | 22.89143 | 110.86416 | 36960 ft | 500 kts | 83° |
| 2026-05-01 13:10 | 22.90011 | 110.93907 | 36968 ft | 500 kts | 83° |
| 2026-05-01 13:10 | 22.90877 | 111.01417 | 36958 ft | 501 kts | 83° |
| 2026-05-01 13:11 | 22.91740 | 111.08926 | 36957 ft | 502 kts | 83° |
| 2026-05-01 13:11 | 22.92600 | 111.16442 | 36956 ft | 502 kts | 83° |
| 2026-05-01 13:12 | 22.93458 | 111.23968 | 36958 ft | 502 kts | 83° |
| 2026-05-01 13:12 | 22.94307 | 111.31451 | 36961 ft | 503 kts | 83° |
| 2026-05-01 13:13 | 22.95158 | 111.38988 | 36943 ft | 503 kts | 83° |
| 2026-05-01 13:13 | 22.96004 | 111.46510 | 36949 ft | 502 kts | 83° |
| 2026-05-01 13:14 | 22.96847 | 111.54035 | 36957 ft | 502 kts | 83° |
| 2026-05-01 13:14 | 22.97684 | 111.61557 | 36920 ft | 503 kts | 83° |
| 2026-05-01 13:14 | 22.98101 | 111.65355 | 36365 ft | 508 kts | 83° |
| 2026-05-01 13:15 | 22.98511 | 111.69110 | 35796 ft | 505 kts | 83° |
| 2026-05-01 13:15 | 22.98922 | 111.72889 | 35144 ft | 506 kts | 83° |
| 2026-05-01 13:15 | 22.99335 | 111.76690 | 34474 ft | 506 kts | 83° |
| 2026-05-01 13:15 | 22.99748 | 111.80493 | 33724 ft | 508 kts | 83° |
| 2026-05-01 13:16 | 23.00161 | 111.84309 | 32933 ft | 509 kts | 83° |
| 2026-05-01 13:16 | 23.00575 | 111.88140 | 32158 ft | 509 kts | 83° |
| 2026-05-01 13:16 | 23.00987 | 111.91955 | 31384 ft | 510 kts | 83° |
| 2026-05-01 13:17 | 23.02221 | 112.03439 | 29010 ft | 507 kts | 83° |
| 2026-05-01 13:17 | 23.02626 | 112.07226 | 28358 ft | 501 kts | 83° |
| 2026-05-01 13:18 | 23.03413 | 112.14620 | 27164 ft | 490 kts | 83° |
| 2026-05-01 13:18 | 23.03802 | 112.18273 | 26575 ft | 484 kts | 83° |
| 2026-05-01 13:18 | 23.04185 | 112.21887 | 25997 ft | 479 kts | 83° |
| 2026-05-01 13:18 | 23.04563 | 112.25461 | 25423 ft | 475 kts | 83° |
| 2026-05-01 13:19 | 23.04937 | 112.29009 | 24831 ft | 471 kts | 83° |
| 2026-05-01 13:19 | 23.05307 | 112.32522 | 24245 ft | 467 kts | 83° |
| 2026-05-01 13:19 | 23.06035 | 112.39456 | 23051 ft | 459 kts | 83° |
| 2026-05-01 13:20 | 23.06394 | 112.42889 | 22418 ft | 455 kts | 83° |
| 2026-05-01 13:20 | 23.06749 | 112.46289 | 21820 ft | 450 kts | 83° |
| 2026-05-01 13:20 | 23.07075 | 112.49662 | 21250 ft | 446 kts | 86° |
| 2026-05-01 13:21 | 23.07126 | 112.56309 | 20245 ft | 436 kts | 92° |
| 2026-05-01 13:21 | 23.07056 | 112.59581 | 19866 ft | 430 kts | 91° |
| 2026-05-01 13:21 | 23.07006 | 112.62791 | 19635 ft | 421 kts | 91° |
| 2026-05-01 13:21 | 23.06984 | 112.65957 | 19429 ft | 432 kts | 90° |
| 2026-05-01 13:22 | 23.06977 | 112.69250 | 19207 ft | 437 kts | 90° |
| 2026-05-01 13:22 | 23.06975 | 112.72552 | 18978 ft | 434 kts | 90° |
| 2026-05-01 13:22 | 23.06974 | 112.75816 | 18742 ft | 431 kts | 90° |
| 2026-05-01 13:22 | 23.06975 | 112.79067 | 18513 ft | 431 kts | 90° |
| 2026-05-01 13:23 | 23.06977 | 112.82316 | 18294 ft | 430 kts | 90° |
| 2026-05-01 13:23 | 23.06978 | 112.85559 | 18041 ft | 428 kts | 90° |
| 2026-05-01 13:23 | 23.06982 | 112.88785 | 17791 ft | 427 kts | 90° |
| 2026-05-01 13:23 | 23.06986 | 112.92003 | 17537 ft | 425 kts | 90° |
| 2026-05-01 13:24 | 23.06987 | 112.95211 | 17284 ft | 423 kts | 90° |
| 2026-05-01 13:24 | 23.06989 | 112.98397 | 17027 ft | 420 kts | 90° |
| 2026-05-01 13:24 | 23.06991 | 113.01565 | 16782 ft | 420 kts | 90° |
| 2026-05-01 13:25 | 23.06994 | 113.07873 | 16301 ft | 416 kts | 90° |
| 2026-05-01 13:25 | 23.06996 | 113.11020 | 16060 ft | 414 kts | 90° |
| 2026-05-01 13:25 | 23.06997 | 113.14107 | 15828 ft | 413 kts | 90° |
| 2026-05-01 13:25 | 23.06998 | 113.17220 | 15590 ft | 412 kts | 90° |
| 2026-05-01 13:26 | 23.07129 | 113.20319 | 15349 ft | 410 kts | 84° |
| 2026-05-01 13:26 | 23.07602 | 113.23367 | 15113 ft | 409 kts | 76° |
| 2026-05-01 13:26 | 23.08412 | 113.26317 | 14883 ft | 406 kts | 69° |
| 2026-05-01 13:26 | 23.09538 | 113.29113 | 14654 ft | 403 kts | 61° |
| 2026-05-01 13:27 | 23.11040 | 113.31663 | 14401 ft | 399 kts | 45° |
| 2026-05-01 13:27 | 23.13159 | 113.33370 | 14177 ft | 383 kts | 21° |
| 2026-05-01 13:27 | 23.18080 | 113.34961 | 13509 ft | 363 kts | 15° |
| 2026-05-01 13:28 | 23.22722 | 113.36787 | 12732 ft | 344 kts | 17° |
| 2026-05-01 13:28 | 23.24923 | 113.37680 | 12476 ft | 332 kts | 17° |
| 2026-05-01 13:29 | 23.29118 | 113.39404 | 11981 ft | 318 kts | 17° |
| 2026-05-01 13:29 | 23.33256 | 113.41107 | 11502 ft | 317 kts | 17° |
| 2026-05-01 13:30 | 23.41491 | 113.44481 | 10566 ft | 313 kts | 17° |
| 2026-05-01 13:31 | 23.45473 | 113.46096 | 10091 ft | 299 kts | 15° |
| 2026-05-01 13:31 | 23.51141 | 113.48223 | 9332 ft | 278 kts | 15° |
| 2026-05-01 13:32 | 23.54791 | 113.49562 | 8844 ft | 276 kts | 15° |
| 2026-05-01 13:33 | 23.60236 | 113.51360 | 8115 ft | 269 kts | 13° |
| 2026-05-01 13:33 | 23.63757 | 113.52464 | 7598 ft | 261 kts | 13° |
| 2026-05-01 13:34 | 23.67238 | 113.53536 | 6988 ft | 258 kts | 13° |
| 2026-05-01 13:34 | 23.70648 | 113.54280 | 6823 ft | 245 kts | 358° |
| 2026-05-01 13:35 | 23.74084 | 113.53640 | 6390 ft | 251 kts | 335° |
| 2026-05-01 13:35 | 23.75460 | 113.52641 | 6095 ft | 236 kts | 302° |
| 2026-05-01 13:35 | 23.75728 | 113.49425 | 5613 ft | 212 kts | 250° |
| 2026-05-01 13:36 | 23.75097 | 113.47999 | 5362 ft | 207 kts | 232° |
| 2026-05-01 13:36 | 23.74199 | 113.46779 | 5130 ft | 205 kts | 228° |
| 2026-05-01 13:36 | 23.72334 | 113.44399 | 5040 ft | 206 kts | 228° |
| 2026-05-01 13:37 | 23.71420 | 113.43219 | 5029 ft | 200 kts | 228° |
| 2026-05-01 13:37 | 23.70832 | 113.42458 | 5024 ft | 198 kts | 228° |
| 2026-05-01 13:37 | 23.69635 | 113.40906 | 5048 ft | 201 kts | 228° |
| 2026-05-01 13:37 | 23.68720 | 113.39761 | 5048 ft | 200 kts | 220° |
| 2026-05-01 13:38 | 23.66119 | 113.38740 | 5036 ft | 202 kts | 196° |
| 2026-05-01 13:38 | 23.64747 | 113.38334 | 4798 ft | 203 kts | 194° |
| 2026-05-01 13:38 | 23.63419 | 113.37960 | 4553 ft | 196 kts | 194° |
| 2026-05-01 13:39 | 23.62086 | 113.37594 | 4294 ft | 199 kts | 193° |
| 2026-05-01 13:39 | 23.60741 | 113.37228 | 4040 ft | 198 kts | 194° |
| 2026-05-01 13:39 | 23.59408 | 113.36866 | 3773 ft | 197 kts | 193° |
| 2026-05-01 13:39 | 23.58074 | 113.36503 | 3525 ft | 198 kts | 193° |
| 2026-05-01 13:40 | 23.56739 | 113.36141 | 3288 ft | 197 kts | 193° |
| 2026-05-01 13:40 | 23.55415 | 113.35781 | 3018 ft | 194 kts | 193° |
| 2026-05-01 13:40 | 23.54132 | 113.35432 | 2757 ft | 185 kts | 193° |
| 2026-05-01 13:40 | 23.52913 | 113.35101 | 2514 ft | 177 kts | 192° |
| 2026-05-01 13:41 | 23.51747 | 113.34784 | 2303 ft | 175 kts | 191° |
| 2026-05-01 13:41 | 23.50565 | 113.34463 | 2071 ft | 175 kts | 192° |
| 2026-05-01 13:41 | 23.49395 | 113.34146 | 1850 ft | 174 kts | 192° |
| 2026-05-01 13:41 | 23.48210 | 113.33825 | 1620 ft | 174 kts | 192° |
| 2026-05-01 13:42 | 23.47076 | 113.33516 | 1383 ft | 160 kts | 192° |
| 2026-05-01 13:42 | 23.46062 | 113.33239 | 1184 ft | 144 kts | 192° |
| 2026-05-01 13:42 | 23.45082 | 113.32975 | 1017 ft | 147 kts | 192° |
| 2026-05-01 13:42 | 23.44078 | 113.32703 | 834 ft | 151 kts | 193° |
| 2026-05-01 13:43 | 23.43065 | 113.32409 | 609 ft | 151 kts | 193° |
| 2026-05-01 13:43 | 23.42392 | 113.32235 | 478 ft | 148 kts | 191° |
| 2026-05-01 13:43 | 23.41371 | 113.31984 | 311 ft | 153 kts | 193° |
| 2026-05-01 13:43 | 23.40027 | 113.31600 | 64 ft | 147 kts | 193° |
| 2026-05-01 13:44 | 23.39126 | 113.31355 | 51 ft | 114 kts | 193° |
| 2026-05-01 13:44 | 23.38505 | 113.31188 | 55 ft | 70 kts | 194° |
| 2026-05-01 13:44 | 23.38269 | 113.31120 | 56 ft | 31 kts | 205° |
| 2026-05-01 13:44 | 23.38147 | 113.31008 | 54 ft | 0 kts | 220° |
| 2026-05-01 13:45 | 23.38138 | 113.31000 | 55 ft | 9 kts | 221° |
| 2026-05-01 13:45 | 23.38059 | 113.30921 | 56 ft | 16 kts | 223° |
| 2026-05-01 13:45 | 23.38032 | 113.30895 | 57 ft | 4 kts | 221° |
| 2026-05-01 13:45 | 23.38012 | 113.30876 | 57 ft | 4 kts | 221° |
| 2026-05-01 13:46 | 23.37990 | 113.30857 | 55 ft | 3 kts | 221° |
| 2026-05-01 13:46 | 23.37991 | 113.30829 | 55 ft | 4 kts | 301° |
| 2026-05-01 13:46 | 23.38006 | 113.30800 | 54 ft | 7 kts | 294° |
| 2026-05-01 13:46 | 23.38033 | 113.30698 | 53 ft | 16 kts | 283° |
| 2026-05-01 13:47 | 23.38060 | 113.30578 | 52 ft | 16 kts | 284° |
| 2026-05-01 13:47 | 23.38063 | 113.30566 | 57 ft | 0 kts | 284° |
| 2026-05-01 13:47 | 23.38070 | 113.30537 | 57 ft | 13 kts | 284° |
| 2026-05-01 13:47 | 23.38195 | 113.30500 | 52 ft | 21 kts | 14° |
| 2026-05-01 13:48 | 23.38339 | 113.30539 | 53 ft | 21 kts | 14° |
| 2026-05-01 13:48 | 23.38479 | 113.30577 | 50 ft | 20 kts | 14° |
| 2026-05-01 13:48 | 23.38613 | 113.30613 | 53 ft | 20 kts | 14° |
| 2026-05-01 13:48 | 23.38745 | 113.30648 | 53 ft | 19 kts | 14° |
| 2026-05-01 13:49 | 23.38874 | 113.30683 | 54 ft | 19 kts | 14° |
| 2026-05-01 13:49 | 23.38995 | 113.30717 | 50 ft | 18 kts | 14° |
| 2026-05-01 13:49 | 23.39114 | 113.30749 | 56 ft | 17 kts | 14° |
| 2026-05-01 13:49 | 23.39228 | 113.30781 | 53 ft | 17 kts | 14° |
| 2026-05-01 13:50 | 23.39339 | 113.30811 | 50 ft | 16 kts | 14° |
| 2026-05-01 13:50 | 23.39445 | 113.30839 | 56 ft | 15 kts | 14° |
| 2026-05-01 13:50 | 23.39540 | 113.30863 | 56 ft | 10 kts | 13° |
| 2026-05-01 13:50 | 23.39605 | 113.30880 | 56 ft | 9 kts | 13° |
| 2026-05-01 13:51 | 23.39622 | 113.30884 | 56 ft | 0 kts | 14° |
| 2026-05-01 13:53 | 23.39625 | 113.30886 | 52 ft | 5 kts | 14° |
| 2026-05-01 13:53 | 23.39724 | 113.30913 | 54 ft | 19 kts | 14° |
| 2026-05-01 13:54 | 23.39856 | 113.30949 | 53 ft | 19 kts | 14° |
| 2026-05-01 13:54 | 23.39985 | 113.30985 | 56 ft | 19 kts | 14° |
| 2026-05-01 13:54 | 23.40110 | 113.31020 | 53 ft | 18 kts | 14° |
| 2026-05-01 13:54 | 23.40190 | 113.30956 | 52 ft | 16 kts | 283° |
| 2026-05-01 13:55 | 23.40221 | 113.30840 | 54 ft | 16 kts | 287° |
| 2026-05-01 13:55 | 23.40238 | 113.30778 | 55 ft | 6 kts | 287° |
| 2026-05-01 13:55 | 23.40244 | 113.30736 | 57 ft | 6 kts | 263° |
| 2026-05-01 13:55 | 23.40224 | 113.30701 | 53 ft | 6 kts | 220° |
| 2026-05-01 13:56 | 23.40202 | 113.30681 | 55 ft | 0 kts | 220° |